sensor_id;sensor_type;location;lat;lon;timestamp;pressure;altitude;pressure_sealevel;temperature;humidity
48718;BME280;34521;33.042;-96.586;2023-05-23T00:01:10;99505.19;;;26.11;32.49
48718;BME280;34521;33.042;-96.586;2023-05-23T00:03:35;99504.02;;;26.34;31.67
48718;BME280;34521;33.042;-96.586;2023-05-23T00:06:00;99496.55;;;26.45;30.64
48718;BME280;34521;33.042;-96.586;2023-05-23T00:08:25;99501.97;;;26.52;31.33
48718;BME280;34521;33.042;-96.586;2023-05-23T00:10:50;99506.89;;;26.05;31.37
48718;BME280;34521;33.042;-96.586;2023-05-23T00:13:15;99503.12;;;26.62;31.05
48718;BME280;34521;33.042;-96.586;2023-05-23T00:15:40;99502.58;;;26.97;31.01
48718;BME280;34521;33.042;-96.586;2023-05-23T00:18:05;99505.25;;;26.18;31.45
48718;BME280;34521;33.042;-96.586;2023-05-23T00:20:31;99502.16;;;26.75;31.23
48718;BME280;34521;33.042;-96.586;2023-05-23T00:22:56;99505.64;;;26.32;31.56
48718;BME280;34521;33.042;-96.586;2023-05-23T00:25:21;99507.40;;;26.63;31.58
48718;BME280;34521;33.042;-96.586;2023-05-23T00:27:46;99511.60;;;26.16;32.28
48718;BME280;34521;33.042;-96.586;2023-05-23T00:30:11;99510.22;;;25.65;32.41
48718;BME280;34521;33.042;-96.586;2023-05-23T00:32:36;99513.17;;;26.58;30.69
48718;BME280;34521;33.042;-96.586;2023-05-23T00:35:01;99512.00;;;26.66;31.05
48718;BME280;34521;33.042;-96.586;2023-05-23T00:37:26;99510.67;;;26.04;31.45
48718;BME280;34521;33.042;-96.586;2023-05-23T00:39:52;99510.17;;;26.62;30.87
48718;BME280;34521;33.042;-96.586;2023-05-23T00:42:16;99503.25;;;26.40;30.98
48718;BME280;34521;33.042;-96.586;2023-05-23T00:44:41;99502.13;;;26.68;31.05
48718;BME280;34521;33.042;-96.586;2023-05-23T00:47:07;99501.44;;;26.86;30.97
48718;BME280;34521;33.042;-96.586;2023-05-23T00:49:32;99502.07;;;26.66;31.04
48718;BME280;34521;33.042;-96.586;2023-05-23T00:51:57;99506.04;;;26.63;31.48
48718;BME280;34521;33.042;-96.586;2023-05-23T00:54:25;99508.82;;;26.85;31.30
48718;BME280;34521;33.042;-96.586;2023-05-23T00:56:47;99511.02;;;25.43;32.78
48718;BME280;34521;33.042;-96.586;2023-05-23T00:59:12;99512.83;;;25.77;31.99
48718;BME280;34521;33.042;-96.586;2023-05-23T01:01:37;99521.76;;;26.47;30.62
48718;BME280;34521;33.042;-96.586;2023-05-23T01:04:02;99525.55;;;26.12;31.46
48718;BME280;34521;33.042;-96.586;2023-05-23T01:06:27;99527.73;;;25.36;32.50
48718;BME280;34521;33.042;-96.586;2023-05-23T01:08:52;99528.96;;;25.64;31.79
48718;BME280;34521;33.042;-96.586;2023-05-23T01:11:22;99532.90;;;26.13;30.67
48718;BME280;34521;33.042;-96.586;2023-05-23T01:13:50;99537.01;;;26.09;30.08
48718;BME280;34521;33.042;-96.586;2023-05-23T01:16:12;99542.50;;;26.07;30.10
48718;BME280;34521;33.042;-96.586;2023-05-23T01:18:37;99545.10;;;25.76;30.68
48718;BME280;34521;33.042;-96.586;2023-05-23T01:21:02;99541.68;;;26.13;30.28
48718;BME280;34521;33.042;-96.586;2023-05-23T01:23:38;99545.23;;;26.47;30.03
48718;BME280;34521;33.042;-96.586;2023-05-23T01:28:17;99553.10;;;24.58;32.23
48718;BME280;34521;33.042;-96.586;2023-05-23T01:30:39;99552.33;;;25.86;30.43
48718;BME280;34521;33.042;-96.586;2023-05-23T01:33:04;99560.03;;;26.06;29.61
48718;BME280;34521;33.042;-96.586;2023-05-23T01:35:28;99565.26;;;26.08;29.39
48718;BME280;34521;33.042;-96.586;2023-05-23T01:37:53;99570.12;;;25.92;30.10
48718;BME280;34521;33.042;-96.586;2023-05-23T01:40:18;99569.28;;;25.95;29.75
48718;BME280;34521;33.042;-96.586;2023-05-23T01:42:43;99565.04;;;26.27;29.70
48718;BME280;34521;33.042;-96.586;2023-05-23T01:45:09;99554.84;;;26.15;29.46
48718;BME280;34521;33.042;-96.586;2023-05-23T01:47:33;99556.38;;;26.00;29.72
48718;BME280;34521;33.042;-96.586;2023-05-23T01:49:59;99560.79;;;26.43;29.69
48718;BME280;34521;33.042;-96.586;2023-05-23T01:52:24;99571.02;;;24.00;32.15
48718;BME280;34521;33.042;-96.586;2023-05-23T01:54:49;99567.67;;;25.78;30.59
48718;BME280;34521;33.042;-96.586;2023-05-23T01:57:14;99572.00;;;25.63;29.94
48718;BME280;34521;33.042;-96.586;2023-05-23T01:59:39;99577.23;;;26.00;29.42
48718;BME280;34521;33.042;-96.586;2023-05-23T02:02:04;99582.03;;;25.70;29.85
48718;BME280;34521;33.042;-96.586;2023-05-23T02:04:30;99591.77;;;24.72;31.45
48718;BME280;34521;33.042;-96.586;2023-05-23T02:06:54;99600.52;;;24.78;31.68
48718;BME280;34521;33.042;-96.586;2023-05-23T02:09:19;99599.57;;;25.61;31.29
48718;BME280;34521;33.042;-96.586;2023-05-23T02:11:44;99603.13;;;25.47;31.59
48718;BME280;34521;33.042;-96.586;2023-05-23T02:14:10;99602.52;;;25.82;30.65
48718;BME280;34521;33.042;-96.586;2023-05-23T02:16:35;99599.98;;;26.35;29.76
48718;BME280;34521;33.042;-96.586;2023-05-23T02:19:00;99594.13;;;25.80;29.64
48718;BME280;34521;33.042;-96.586;2023-05-23T02:21:25;99600.47;;;25.89;29.42
48718;BME280;34521;33.042;-96.586;2023-05-23T02:23:50;99602.83;;;25.58;30.24
48718;BME280;34521;33.042;-96.586;2023-05-23T02:26:15;99604.30;;;25.89;30.18
48718;BME280;34521;33.042;-96.586;2023-05-23T02:28:40;99597.52;;;25.34;30.66
48718;BME280;34521;33.042;-96.586;2023-05-23T02:31:05;99595.68;;;25.41;30.74
48718;BME280;34521;33.042;-96.586;2023-05-23T02:33:30;99604.24;;;25.32;31.41
48718;BME280;34521;33.042;-96.586;2023-05-23T02:35:55;99604.05;;;25.38;31.18
48718;BME280;34521;33.042;-96.586;2023-05-23T02:38:21;99605.80;;;25.75;30.97
48718;BME280;34521;33.042;-96.586;2023-05-23T02:40:46;99598.06;;;26.33;29.49
48718;BME280;34521;33.042;-96.586;2023-05-23T02:43:11;99596.31;;;25.23;30.25
48718;BME280;34521;33.042;-96.586;2023-05-23T02:45:36;99604.06;;;24.59;30.17
48718;BME280;34521;33.042;-96.586;2023-05-23T02:48:01;99612.02;;;24.99;30.07
48718;BME280;34521;33.042;-96.586;2023-05-23T02:50:26;99613.17;;;25.47;30.35
48718;BME280;34521;33.042;-96.586;2023-05-23T02:52:51;99613.12;;;25.59;30.31
48718;BME280;34521;33.042;-96.586;2023-05-23T02:55:16;99613.81;;;25.51;30.57
48718;BME280;34521;33.042;-96.586;2023-05-23T02:57:41;99612.07;;;25.52;30.47
48718;BME280;34521;33.042;-96.586;2023-05-23T03:00:07;99613.85;;;25.69;30.44
48718;BME280;34521;33.042;-96.586;2023-05-23T03:02:31;99613.67;;;25.97;30.22
48718;BME280;34521;33.042;-96.586;2023-05-23T03:04:57;99614.75;;;26.08;29.82
48718;BME280;34521;33.042;-96.586;2023-05-23T03:07:21;99617.53;;;26.55;28.58
48718;BME280;34521;33.042;-96.586;2023-05-23T03:09:46;99613.32;;;25.74;28.84
48718;BME280;34521;33.042;-96.586;2023-05-23T03:12:11;99615.63;;;25.56;29.61
48718;BME280;34521;33.042;-96.586;2023-05-23T03:14:36;99624.12;;;25.84;29.49
48718;BME280;34521;33.042;-96.586;2023-05-23T03:17:02;99628.74;;;25.89;29.06
48718;BME280;34521;33.042;-96.586;2023-05-23T03:19:27;99624.40;;;26.15;28.82
48718;BME280;34521;33.042;-96.586;2023-05-23T03:21:52;99613.84;;;26.06;28.75
48718;BME280;34521;33.042;-96.586;2023-05-23T03:24:17;99614.26;;;26.32;28.68
48718;BME280;34521;33.042;-96.586;2023-05-23T03:26:42;99622.15;;;25.65;29.40
48718;BME280;34521;33.042;-96.586;2023-05-23T03:29:07;99631.55;;;25.50;29.51
48718;BME280;34521;33.042;-96.586;2023-05-23T03:31:32;99648.80;;;24.57;30.55
48718;BME280;34521;33.042;-96.586;2023-05-23T03:33:57;99655.55;;;25.07;29.63
48718;BME280;34521;33.042;-96.586;2023-05-23T03:36:22;99665.87;;;24.88;29.77
48718;BME280;34521;33.042;-96.586;2023-05-23T03:38:47;99661.06;;;25.93;28.59
48718;BME280;34521;33.042;-96.586;2023-05-23T03:41:12;99659.38;;;25.81;29.03
48718;BME280;34521;33.042;-96.586;2023-05-23T03:43:37;99655.03;;;25.78;29.27
48718;BME280;34521;33.042;-96.586;2023-05-23T03:46:02;99663.46;;;25.77;29.70
48718;BME280;34521;33.042;-96.586;2023-05-23T03:48:27;99664.60;;;25.95;29.70
48718;BME280;34521;33.042;-96.586;2023-05-23T03:50:52;99673.02;;;25.66;29.93
48718;BME280;34521;33.042;-96.586;2023-05-23T03:53:17;99678.27;;;25.82;30.13
48718;BME280;34521;33.042;-96.586;2023-05-23T03:55:42;99677.77;;;25.41;30.40
48718;BME280;34521;33.042;-96.586;2023-05-23T03:58:07;99677.77;;;25.73;29.98
48718;BME280;34521;33.042;-96.586;2023-05-23T04:00:32;99667.37;;;26.49;28.54
48718;BME280;34521;33.042;-96.586;2023-05-23T04:02:57;99665.92;;;25.65;28.48
48718;BME280;34521;33.042;-96.586;2023-05-23T04:05:22;99664.62;;;25.36;29.75
48718;BME280;34521;33.042;-96.586;2023-05-23T04:07:47;99662.32;;;24.91;30.00
48718;BME280;34521;33.042;-96.586;2023-05-23T04:10:12;99654.64;;;25.68;29.61
48718;BME280;34521;33.042;-96.586;2023-05-23T04:12:37;99642.54;;;25.36;29.60
48718;BME280;34521;33.042;-96.586;2023-05-23T04:15:03;99634.54;;;25.19;29.94
48718;BME280;34521;33.042;-96.586;2023-05-23T04:17:28;99634.09;;;25.64;30.10
48718;BME280;34521;33.042;-96.586;2023-05-23T04:19:54;99635.41;;;25.40;29.69
48718;BME280;34521;33.042;-96.586;2023-05-23T04:22:18;99635.66;;;24.92;29.90
48718;BME280;34521;33.042;-96.586;2023-05-23T04:24:43;99625.76;;;25.55;29.65
48718;BME280;34521;33.042;-96.586;2023-05-23T04:27:08;99625.15;;;25.87;29.38
48718;BME280;34521;33.042;-96.586;2023-05-23T04:29:34;99623.59;;;25.65;29.52
48718;BME280;34521;33.042;-96.586;2023-05-23T04:31:58;99623.38;;;25.90;29.42
48718;BME280;34521;33.042;-96.586;2023-05-23T04:34:23;99628.52;;;24.52;30.47
48718;BME280;34521;33.042;-96.586;2023-05-23T04:36:48;99629.88;;;25.18;29.30
48718;BME280;34521;33.042;-96.586;2023-05-23T04:39:13;99633.63;;;25.28;29.63
48718;BME280;34521;33.042;-96.586;2023-05-23T04:41:39;99625.99;;;25.75;28.94
48718;BME280;34521;33.042;-96.586;2023-05-23T04:44:03;99627.73;;;25.87;29.00
48718;BME280;34521;33.042;-96.586;2023-05-23T04:46:28;99628.82;;;25.87;28.84
48718;BME280;34521;33.042;-96.586;2023-05-23T04:48:53;99627.27;;;25.89;28.89
48718;BME280;34521;33.042;-96.586;2023-05-23T04:51:18;99630.72;;;26.40;28.68
48718;BME280;34521;33.042;-96.586;2023-05-23T04:53:43;99632.59;;;26.06;28.86
48718;BME280;34521;33.042;-96.586;2023-05-23T04:56:08;99630.81;;;26.11;29.02
48718;BME280;34521;33.042;-96.586;2023-05-23T04:58:33;99625.22;;;25.67;29.35
48718;BME280;34521;33.042;-96.586;2023-05-23T05:00:59;99624.43;;;25.07;30.58
48718;BME280;34521;33.042;-96.586;2023-05-23T05:03:24;99626.50;;;25.19;31.42
48718;BME280;34521;33.042;-96.586;2023-05-23T05:05:49;99631.03;;;25.82;30.67
48718;BME280;34521;33.042;-96.586;2023-05-23T05:08:14;99638.83;;;26.30;30.41
48718;BME280;34521;33.042;-96.586;2023-05-23T05:10:39;99645.67;;;26.19;30.24
48718;BME280;34521;33.042;-96.586;2023-05-23T05:13:04;99644.16;;;25.67;30.46
48718;BME280;34521;33.042;-96.586;2023-05-23T05:15:29;99648.66;;;26.07;30.26
48718;BME280;34521;33.042;-96.586;2023-05-23T05:17:54;99657.83;;;25.64;30.75
48718;BME280;34521;33.042;-96.586;2023-05-23T05:20:19;99665.25;;;25.80;30.57
48718;BME280;34521;33.042;-96.586;2023-05-23T05:22:44;99660.94;;;26.17;30.46
48718;BME280;34521;33.042;-96.586;2023-05-23T05:25:10;99665.96;;;24.04;32.39
48718;BME280;34521;33.042;-96.586;2023-05-23T05:27:35;99673.58;;;24.37;30.65
48718;BME280;34521;33.042;-96.586;2023-05-23T05:29:59;99686.92;;;25.15;30.24
48718;BME280;34521;33.042;-96.586;2023-05-23T05:32:24;99693.15;;;25.63;29.64
48718;BME280;34521;33.042;-96.586;2023-05-23T05:34:49;99691.06;;;25.75;29.38
48718;BME280;34521;33.042;-96.586;2023-05-23T05:37:14;99686.56;;;26.06;29.37
48718;BME280;34521;33.042;-96.586;2023-05-23T05:39:39;99678.99;;;25.99;29.26
48718;BME280;34521;33.042;-96.586;2023-05-23T05:42:05;99674.33;;;26.19;29.13
48718;BME280;34521;33.042;-96.586;2023-05-23T05:44:29;99670.85;;;26.27;29.09
48718;BME280;34521;33.042;-96.586;2023-05-23T05:46:54;99668.72;;;26.44;29.24
48718;BME280;34521;33.042;-96.586;2023-05-23T05:49:19;99669.68;;;26.11;29.41
48718;BME280;34521;33.042;-96.586;2023-05-23T05:51:44;99673.33;;;26.29;29.31
48718;BME280;34521;33.042;-96.586;2023-05-23T05:54:10;99671.17;;;26.07;29.57
48718;BME280;34521;33.042;-96.586;2023-05-23T05:56:35;99677.90;;;24.73;32.71
48718;BME280;34521;33.042;-96.586;2023-05-23T05:58:59;99673.30;;;24.25;33.91
48718;BME280;34521;33.042;-96.586;2023-05-23T06:01:25;99672.43;;;24.18;34.94
48718;BME280;34521;33.042;-96.586;2023-05-23T06:03:50;99675.35;;;25.21;33.71
48718;BME280;34521;33.042;-96.586;2023-05-23T06:06:15;99672.55;;;25.67;32.67
48718;BME280;34521;33.042;-96.586;2023-05-23T06:08:40;99670.63;;;25.91;32.27
48718;BME280;34521;33.042;-96.586;2023-05-23T06:11:05;99665.55;;;26.12;31.94
48718;BME280;34521;33.042;-96.586;2023-05-23T06:13:30;99668.93;;;26.17;31.80
48718;BME280;34521;33.042;-96.586;2023-05-23T06:15:55;99665.32;;;26.32;31.59
48718;BME280;34521;33.042;-96.586;2023-05-23T06:18:20;99661.99;;;26.13;31.40
48718;BME280;34521;33.042;-96.586;2023-05-23T06:20:45;99664.32;;;23.34;33.89
48718;BME280;34521;33.042;-96.586;2023-05-23T06:23:10;99669.65;;;24.19;32.08
48718;BME280;34521;33.042;-96.586;2023-05-23T06:25:35;99680.30;;;25.00;31.97
48718;BME280;34521;33.042;-96.586;2023-05-23T06:28:00;99683.45;;;25.87;30.76
48718;BME280;34521;33.042;-96.586;2023-05-23T06:30:25;99679.70;;;25.83;30.26
48718;BME280;34521;33.042;-96.586;2023-05-23T06:32:50;99673.04;;;25.74;30.45
48718;BME280;34521;33.042;-96.586;2023-05-23T06:35:15;99666.92;;;25.92;30.34
48718;BME280;34521;33.042;-96.586;2023-05-23T06:37:40;99661.74;;;26.02;30.27
48718;BME280;34521;33.042;-96.586;2023-05-23T06:40:06;99652.13;;;25.98;30.36
48718;BME280;34521;33.042;-96.586;2023-05-23T06:42:30;99649.68;;;26.17;30.22
48718;BME280;34521;33.042;-96.586;2023-05-23T06:44:55;99642.73;;;26.15;30.28
48718;BME280;34521;33.042;-96.586;2023-05-23T06:47:20;99640.32;;;25.86;30.37
48718;BME280;34521;33.042;-96.586;2023-05-23T06:49:45;99637.03;;;26.19;30.31
48718;BME280;34521;33.042;-96.586;2023-05-23T06:52:10;99636.60;;;26.23;30.30
48718;BME280;34521;33.042;-96.586;2023-05-23T06:54:35;99641.08;;;23.87;34.05
48718;BME280;34521;33.042;-96.586;2023-05-23T06:57:01;99635.63;;;23.87;34.79
48718;BME280;34521;33.042;-96.586;2023-05-23T06:59:25;99623.82;;;23.68;35.82
48718;BME280;34521;33.042;-96.586;2023-05-23T07:01:51;99615.59;;;23.78;36.42
48718;BME280;34521;33.042;-96.586;2023-05-23T07:04:16;99611.11;;;25.50;33.78
48718;BME280;34521;33.042;-96.586;2023-05-23T07:06:41;99609.90;;;25.59;33.30
48718;BME280;34521;33.042;-96.586;2023-05-23T07:09:06;99599.82;;;25.84;32.59
48718;BME280;34521;33.042;-96.586;2023-05-23T07:11:32;99602.41;;;25.65;32.47
48718;BME280;34521;33.042;-96.586;2023-05-23T07:13:56;99606.39;;;26.15;32.08
48718;BME280;34521;33.042;-96.586;2023-05-23T07:16:21;99610.04;;;26.33;31.80
48718;BME280;34521;33.042;-96.586;2023-05-23T07:18:46;99609.35;;;26.27;31.75
48718;BME280;34521;33.042;-96.586;2023-05-23T07:21:11;99613.65;;;23.70;33.59
48718;BME280;34521;33.042;-96.586;2023-05-23T07:23:36;99616.09;;;24.91;31.83
48718;BME280;34521;33.042;-96.586;2023-05-23T07:26:01;99610.28;;;24.84;31.73
48718;BME280;34521;33.042;-96.586;2023-05-23T07:28:26;99599.31;;;25.76;30.83
48718;BME280;34521;33.042;-96.586;2023-05-23T07:30:51;99593.65;;;25.80;30.59
48718;BME280;34521;33.042;-96.586;2023-05-23T07:33:16;99589.57;;;25.99;30.40
48718;BME280;34521;33.042;-96.586;2023-05-23T07:35:42;99583.12;;;26.02;30.40
48718;BME280;34521;33.042;-96.586;2023-05-23T07:38:06;99591.87;;;25.83;30.45
48718;BME280;34521;33.042;-96.586;2023-05-23T07:40:31;99600.65;;;26.16;30.37
48718;BME280;34521;33.042;-96.586;2023-05-23T07:42:56;99599.07;;;25.97;30.35
48718;BME280;34521;33.042;-96.586;2023-05-23T07:45:21;99590.23;;;26.06;30.56
48718;BME280;34521;33.042;-96.586;2023-05-23T07:47:46;99593.21;;;26.28;30.35
48718;BME280;34521;33.042;-96.586;2023-05-23T07:50:11;99589.96;;;26.18;30.50
48718;BME280;34521;33.042;-96.586;2023-05-23T07:52:37;99589.59;;;26.20;30.49
48718;BME280;34521;33.042;-96.586;2023-05-23T07:55:01;99589.31;;;25.89;30.57
48718;BME280;34521;33.042;-96.586;2023-05-23T07:57:27;99588.30;;;26.16;30.60
48718;BME280;34521;33.042;-96.586;2023-05-23T07:59:52;99599.26;;;23.72;34.81
48718;BME280;34521;33.042;-96.586;2023-05-23T08:02:17;99596.21;;;25.36;32.71
48718;BME280;34521;33.042;-96.586;2023-05-23T08:04:42;99593.40;;;25.64;32.34
48718;BME280;34521;33.042;-96.586;2023-05-23T08:07:07;99601.47;;;25.94;31.93
48718;BME280;34521;33.042;-96.586;2023-05-23T08:09:32;99604.41;;;26.13;31.61
48718;BME280;34521;33.042;-96.586;2023-05-23T08:11:57;99605.34;;;26.03;31.68
48718;BME280;34521;33.042;-96.586;2023-05-23T08:14:22;99607.73;;;24.50;32.59
48718;BME280;34521;33.042;-96.586;2023-05-23T08:16:47;99606.67;;;24.16;32.90
48718;BME280;34521;33.042;-96.586;2023-05-23T08:19:12;99601.92;;;24.34;32.33
48718;BME280;34521;33.042;-96.586;2023-05-23T08:21:37;99593.58;;;25.23;31.51
48718;BME280;34521;33.042;-96.586;2023-05-23T08:24:03;99585.20;;;25.47;30.66
48718;BME280;34521;33.042;-96.586;2023-05-23T08:26:28;99586.41;;;25.77;30.36
48718;BME280;34521;33.042;-96.586;2023-05-23T08:28:53;99583.53;;;25.89;30.29
48718;BME280;34521;33.042;-96.586;2023-05-23T08:31:18;99584.54;;;25.77;30.47
48718;BME280;34521;33.042;-96.586;2023-05-23T08:33:43;99587.82;;;25.82;30.48
48718;BME280;34521;33.042;-96.586;2023-05-23T08:36:08;99593.14;;;25.84;30.50
48718;BME280;34521;33.042;-96.586;2023-05-23T08:38:33;99597.07;;;25.70;30.45
48718;BME280;34521;33.042;-96.586;2023-05-23T08:41:00;99604.85;;;25.83;30.60
48718;BME280;34521;33.042;-96.586;2023-05-23T08:43:23;99604.37;;;25.72;30.78
48718;BME280;34521;33.042;-96.586;2023-05-23T08:45:49;99609.45;;;25.83;30.69
48718;BME280;34521;33.042;-96.586;2023-05-23T08:48:13;99613.68;;;25.81;30.74
48718;BME280;34521;33.042;-96.586;2023-05-23T08:50:40;99616.41;;;25.68;30.65
48718;BME280;34521;33.042;-96.586;2023-05-23T08:53:04;99622.03;;;23.49;35.04
48718;BME280;34521;33.042;-96.586;2023-05-23T08:55:28;99626.25;;;23.52;35.91
48718;BME280;34521;33.042;-96.586;2023-05-23T08:57:54;99627.30;;;23.05;36.37
48718;BME280;34521;33.042;-96.586;2023-05-23T09:00:19;99632.92;;;23.69;36.38
48718;BME280;34521;33.042;-96.586;2023-05-23T09:02:44;99633.65;;;25.41;33.73
48718;BME280;34521;33.042;-96.586;2023-05-23T09:05:09;99634.46;;;25.31;33.28
48718;BME280;34521;33.042;-96.586;2023-05-23T09:07:34;99633.22;;;25.42;33.01
48718;BME280;34521;33.042;-96.586;2023-05-23T09:09:58;99630.77;;;25.51;32.76
48718;BME280;34521;33.042;-96.586;2023-05-23T09:12:23;99624.15;;;25.78;32.38
48718;BME280;34521;33.042;-96.586;2023-05-23T09:14:49;99623.23;;;25.64;32.45
48718;BME280;34521;33.042;-96.586;2023-05-23T09:17:17;99612.84;;;25.71;32.29
48718;BME280;34521;33.042;-96.586;2023-05-23T09:19:40;99612.29;;;25.89;32.02
48718;BME280;34521;33.042;-96.586;2023-05-23T09:22:04;99604.73;;;25.68;32.19
48718;BME280;34521;33.042;-96.586;2023-05-23T09:24:33;99604.29;;;23.85;33.85
48718;BME280;34521;33.042;-96.586;2023-05-23T09:26:54;99598.38;;;23.51;33.88
48718;BME280;34521;33.042;-96.586;2023-05-23T09:29:20;99594.01;;;23.84;33.29
48718;BME280;34521;33.042;-96.586;2023-05-23T09:31:44;99594.57;;;25.04;31.95
48718;BME280;34521;33.042;-96.586;2023-05-23T09:34:09;99590.50;;;25.14;31.28
48718;BME280;34521;33.042;-96.586;2023-05-23T09:36:34;99585.16;;;25.23;31.19
48718;BME280;34521;33.042;-96.586;2023-05-23T09:39:02;99574.14;;;25.38;31.06
48718;BME280;34521;33.042;-96.586;2023-05-23T09:41:24;99570.24;;;25.40;31.09
48718;BME280;34521;33.042;-96.586;2023-05-23T09:43:51;99571.44;;;25.55;30.98
48718;BME280;34521;33.042;-96.586;2023-05-23T09:46:14;99579.89;;;25.74;30.78
48718;BME280;34521;33.042;-96.586;2023-05-23T09:48:39;99580.08;;;25.91;30.93
48718;BME280;34521;33.042;-96.586;2023-05-23T09:51:04;99572.26;;;23.04;35.29
48718;BME280;34521;33.042;-96.586;2023-05-23T09:53:29;99565.55;;;22.53;36.89
48718;BME280;34521;33.042;-96.586;2023-05-23T09:55:55;99561.00;;;23.30;36.73
48718;BME280;34521;33.042;-96.586;2023-05-23T09:58:20;99552.02;;;22.92;37.15
48718;BME280;34521;33.042;-96.586;2023-05-23T10:00:46;99547.32;;;24.93;34.28
48718;BME280;34521;33.042;-96.586;2023-05-23T10:03:11;99535.41;;;25.43;33.60
48718;BME280;34521;33.042;-96.586;2023-05-23T10:05:37;99534.33;;;25.51;33.12
48718;BME280;34521;33.042;-96.586;2023-05-23T10:08:01;99534.20;;;25.68;32.82
48718;BME280;34521;33.042;-96.586;2023-05-23T10:10:27;99536.70;;;26.01;32.63
48718;BME280;34521;33.042;-96.586;2023-05-23T10:12:51;99537.82;;;25.47;32.61
48718;BME280;34521;33.042;-96.586;2023-05-23T10:15:17;99530.68;;;25.58;32.41
48718;BME280;34521;33.042;-96.586;2023-05-23T10:17:50;99523.01;;;25.52;32.41
48718;BME280;34521;33.042;-96.586;2023-05-23T10:20:09;99522.23;;;25.61;32.26
48718;BME280;34521;33.042;-96.586;2023-05-23T10:22:31;99521.57;;;26.15;32.12
48718;BME280;34521;33.042;-96.586;2023-05-23T10:24:55;99517.62;;;25.56;32.23
48718;BME280;34521;33.042;-96.586;2023-05-23T10:27:21;99517.06;;;25.57;32.13
48718;BME280;34521;33.042;-96.586;2023-05-23T10:29:46;99520.40;;;25.57;32.15
48718;BME280;34521;33.042;-96.586;2023-05-23T10:32:12;99519.90;;;25.72;31.91
48718;BME280;34521;33.042;-96.586;2023-05-23T10:34:40;99518.67;;;25.66;31.92
48718;BME280;34521;33.042;-96.586;2023-05-23T10:37:03;99517.34;;;25.66;31.87
48718;BME280;34521;33.042;-96.586;2023-05-23T10:39:37;99517.80;;;22.63;34.89
48718;BME280;34521;33.042;-96.586;2023-05-23T10:41:55;99517.42;;;23.64;32.96
48718;BME280;34521;33.042;-96.586;2023-05-23T10:44:22;99516.99;;;24.34;31.87
48718;BME280;34521;33.042;-96.586;2023-05-23T10:46:51;99512.56;;;25.20;31.38
48718;BME280;34521;33.042;-96.586;2023-05-23T10:49:08;99510.32;;;25.39;30.92
48718;BME280;34521;33.042;-96.586;2023-05-23T10:51:37;99512.04;;;25.35;30.93
48718;BME280;34521;33.042;-96.586;2023-05-23T10:53:56;99509.31;;;25.73;30.87
48718;BME280;34521;33.042;-96.586;2023-05-23T10:56:22;99516.24;;;22.75;35.98
48718;BME280;34521;33.042;-96.586;2023-05-23T10:58:49;99518.70;;;24.11;34.58
48718;BME280;34521;33.042;-96.586;2023-05-23T11:01:14;99508.45;;;24.93;33.04
48718;BME280;34521;33.042;-96.586;2023-05-23T11:03:48;99509.80;;;25.35;32.54
48718;BME280;34521;33.042;-96.586;2023-05-23T11:06:03;99514.90;;;25.46;32.02
48718;BME280;34521;33.042;-96.586;2023-05-23T11:08:27;99519.32;;;25.81;31.83
48718;BME280;34521;33.042;-96.586;2023-05-23T11:10:53;99517.94;;;25.42;31.95
48718;BME280;34521;33.042;-96.586;2023-05-23T11:13:17;99516.81;;;25.51;31.84
48718;BME280;34521;33.042;-96.586;2023-05-23T11:15:42;99517.08;;;25.65;31.94
48718;BME280;34521;33.042;-96.586;2023-05-23T11:18:07;99519.46;;;25.85;31.70
48718;BME280;34521;33.042;-96.586;2023-05-23T11:20:33;99518.62;;;25.60;31.69
48718;BME280;34521;33.042;-96.586;2023-05-23T11:22:59;99520.93;;;25.48;31.81
48718;BME280;34521;33.042;-96.586;2023-05-23T11:27:49;99513.99;;;25.63;31.63
48718;BME280;34521;33.042;-96.586;2023-05-23T11:30:13;99511.00;;;25.67;31.54
48718;BME280;34521;33.042;-96.586;2023-05-23T11:32:37;99511.42;;;25.78;31.44
48718;BME280;34521;33.042;-96.586;2023-05-23T11:35:04;99511.88;;;25.80;31.40
48718;BME280;34521;33.042;-96.586;2023-05-23T11:37:28;99508.48;;;25.75;31.45
48718;BME280;34521;33.042;-96.586;2023-05-23T11:39:53;99511.47;;;25.81;31.38
48718;BME280;34521;33.042;-96.586;2023-05-23T11:42:18;99517.94;;;25.71;31.49
48718;BME280;34521;33.042;-96.586;2023-05-23T11:44:43;99530.98;;;23.21;35.45
48718;BME280;34521;33.042;-96.586;2023-05-23T11:47:08;99533.42;;;22.31;37.49
48718;BME280;34521;33.042;-96.586;2023-05-23T11:49:35;99534.01;;;22.24;37.93
48718;BME280;34521;33.042;-96.586;2023-05-23T11:52:00;99533.67;;;22.58;37.94
48718;BME280;34521;33.042;-96.586;2023-05-23T11:54:23;99541.16;;;23.01;37.14
48718;BME280;34521;33.042;-96.586;2023-05-23T11:56:48;99543.67;;;22.62;38.48
48718;BME280;34521;33.042;-96.586;2023-05-23T11:59:14;99547.99;;;24.76;34.51
48718;BME280;34521;33.042;-96.586;2023-05-23T12:01:38;99554.51;;;25.24;33.97
48718;BME280;34521;33.042;-96.586;2023-05-23T12:04:08;99556.13;;;25.37;33.74
48718;BME280;34521;33.042;-96.586;2023-05-23T12:06:28;99554.29;;;25.81;33.22
48718;BME280;34521;33.042;-96.586;2023-05-23T12:08:53;99562.05;;;25.71;32.92
48718;BME280;34521;33.042;-96.586;2023-05-23T12:11:18;99574.04;;;25.69;32.85
48718;BME280;34521;33.042;-96.586;2023-05-23T12:13:43;99586.69;;;22.16;36.31
48718;BME280;34521;33.042;-96.586;2023-05-23T12:16:09;99586.78;;;22.86;34.99
48718;BME280;34521;33.042;-96.586;2023-05-23T12:18:36;99586.54;;;24.57;32.91
48718;BME280;34521;33.042;-96.586;2023-05-23T12:20:59;99581.79;;;25.18;32.11
48718;BME280;34521;33.042;-96.586;2023-05-23T12:23:25;99580.59;;;25.11;31.98
48718;BME280;34521;33.042;-96.586;2023-05-23T12:25:51;99579.77;;;25.75;31.56
48718;BME280;34521;33.042;-96.586;2023-05-23T12:28:15;99582.64;;;25.42;31.96
48718;BME280;34521;33.042;-96.586;2023-05-23T12:30:42;99579.37;;;25.35;31.84
48718;BME280;34521;33.042;-96.586;2023-05-23T12:33:08;99586.87;;;25.22;32.01